Buenos Aires, Argentina

1:09 PM ART en Febrero 12, 2016 (GMT -0300)
Recoleta | | Change Station
CLOSE
Current Station
Estación meteorológica personal
Location: Buenos Aires, CABA
Altura: 82 ft
Estaciones meteorológicas cercanas

Alt 82 ft 34.59 °S, 58.39 °W | Updated 9 minutes ago

Clear
Despejado
96.6 ° F
Sensación térmica 101 ° F
N
4.5
Viento Variable Viento desde Sur
Gusts 9.2 mph

Hoy
Alta -- | Baja -- ° F
--% Posibilidad de precipitaciones
Ayer
Alta -- | Baja -- ° F
Precip. -- pul
Presión 29.77 pul
Visibilidad -9999.0 Millas
Nubes
Índice de calor 101 ° F
Punto de rocío 68 ° F
Humedad 39%
Precipitaciones 0.00 pul
Espesor de la nieve No disponible.
6:24 AM 7:50 PM
Creciente, 21% visible
METAR SABE 121600Z 05007KT CAVOK 31/22 Q1008
Presión 29.77 pul
Visibilidad -9999.0 Millas
Nubes
Índice de calor 101 ° F
Punto de rocío 68 ° F
Humedad 39%
Precipitaciones 0.00 pul
Espesor de la nieve No disponible.
6:24 AM 7:50 PM
Creciente, 21% visible
METAR SABE 121600Z 05007KT CAVOK 31/22 Q1008

10-Day Weather Forecast

No radar image for this location.
×

Almanac

Astronomía

Feb. 12, 2016 Salida Puesta
Hora real
Crepúsculo civil
Crepúsculo náutico
Crepúsculo astronómico
Luna
Horas de luz
Horas de luz
Tomorrow will be .
, % of the Moon is Illuminated

Extremos de hoy

Máximos del país Bajas del país

Community

WunderPhotos

Upload Photos

1,892,345 ¡fotos cargadas!

WunderBlog® & News

Nearby

Calidad del aire

  Calidad del aire Índice AQ Contaminante
Not available.

Grosos de nieve

Estación Profundido Altura

Actividad de terremotos

Ciudad Distance Mag. Tiempo y dato
Magnitud mínima muestra es 2,5.

Temperaturas de aguas costeras

Lugar Temperatura

Stations

Estaciones meteorológicas cercanas

Ubicación de la estación Temp. Vientos helados Punto de rocío Humedad Viento Precip. Alt Actualizado Tipo